Date,TemperatureHighF,TemperatureAvgF,TemperatureLowF,DewpointHighF,DewpointAvgF,DewpointLowF,HumidityHigh,HumidityAvg,HumidityLow,PressureMaxIn,PressureMinIn,WindSpeedMaxMPH,WindSpeedAvgMPH,GustSpeedMaxMPH,PrecipitationSumIn
2012-1-1,55,45,35,47,40,31,90,81,62,30.02,29.60,10,2,10,0.07
2012-1-2,48,39,30,44,24,17,87,55,41,29.76,29.60,14,3,14,0.07
2012-1-3,31,27,18,21,11,-1,70,52,37,30.04,29.72,14,5,14,0.00
2012-1-4,29,22,13,18,5,-2,65,49,32,30.14,29.87,10,3,10,0.00
2012-1-5,40,31,26,27,23,17,84,71,54,29.89,29.75,13,1,13,0.00
2012-1-6,58,42,27,35,29,20,85,63,40,29.87,29.67,9,1,9,0.00
2012-1-7,65,48,35,40,33,27,77,58,36,29.87,29.63,9,1,9,0.00
2012-1-8,50,42,34,32,27,21,72,58,45,30.21,29.87,8,2,8,0.00
2012-1-9,43,35,30,27,24,19,76,63,53,30.22,29.90,5,1,5,0.00
2012-1-10,49,39,32,35,29,24,89,70,51,29.92,29.79,9,2,9,0.00
2012-1-11,49,39,27,43,31,21,90,74,56,30.00,29.65,10,1,10,0.20
2012-1-12,53,48,45,51,46,42,94,92,90,29.66,29.27,12,2,12,0.66
2012-1-13,50,38,30,47,28,15,95,69,44,29.77,29.18,13,4,13,0.02
2012-1-14,36,30,25,19,17,16,69,59,47,29.99,29.77,11,3,11,0.02
2012-1-15,27,23,18,17,7,0,76,51,34,30.47,29.99,13,4,13,0.00
2012-1-16,40,28,14,31,15,3,73,59,42,30.51,30.07,11,2,11,0.00
2012-1-17,54,44,37,49,41,31,94,87,73,30.07,29.48,13,3,13,0.00
2012-1-18,54,41,27,50,24,11,86,52,36,30.07,29.48,18,6,18,0.00
2012-1-19,37,30,22,27,20,10,71,65,51,30.23,29.94,10,2,10,0.00
2012-1-20,37,32,29,28,16,7,72,53,33,30.30,29.95,10,2,10,0.00
2012-1-21,36,31,28,34,26,13,92,81,48,30.26,29.90,15,3,15,0.00
2012-1-22,39,32,25,37,28,19,90,84,79,30.48,30.26,12,4,12,0.00
2012-1-23,47,43,39,45,40,36,94,91,89,30.38,30.19,5,1,5,0.00
2012-1-24,57,49,41,46,40,33,89,72,57,30.15,29.97,8,2,8,0.00
2012-1-25,48,41,37,32,31,28,77,66,53,30.31,30.15,5,2,5,0.00
2012-1-26,38,38,37,31,31,30,77,76,75,30.22,30.18,1,0,1,0.00
2012-1-27,58,48,43,51,38,32,79,67,63,29.86,29.41,9,5,9,0.00
2012-1-28,52,42,33,34,31,17,80,66,38,30.05,29.86,7,2,7,0.00
2012-1-29,47,38,28,27,20,17,66,49,33,30.22,30.05,5,2,5,0.00
2012-1-30,42,37,32,27,20,16,66,52,36,30.33,30.04,7,2,7,0.00
2012-1-31,63,49,33,36,32,19,72,54,31,30.27,30.03,8,2,8,0.00
2012-2-1,66,54,46,47,40,34,79,60,47,30.05,29.90,7,2,7,0.00
2012-2-2,50,44,38,38,34,23,79,66,54,30.22,29.97,8,3,8,0.00
2012-2-3,48,37,29,25,22,20,70,55,40,30.44,30.24,8,2,8,0.00
2012-2-4,46,38,30,29,26,20,72,61,50,30.37,30.09,2,1,2,0.00
2012-2-5,42,37,29,28,25,20,71,63,54,30.19,30.07,6,2,6,0.00
2012-2-6,54,38,24,31,25,18,78,60,38,30.19,30.01,6,2,6,0.00
2012-2-7,54,42,32,32,28,24,78,60,43,30.22,29.99,6,2,6,0.00
2012-2-8,42,36,32,31,27,23,86,71,63,30.29,30.09,6,2,6,0.00
2012-2-9,45,36,30,30,27,21,90,72,48,30.16,30.07,7,2,7,0.00
2012-2-10,52,38,27,36,28,20,79,67,48,30.16,29.92,8,2,8,0.00
2012-2-11,38,35,34,34,31,29,90,85,79,29.92,29.56,5,2,5,0.00
2012-2-12,34,28,20,29,15,8,87,59,46,30.01,29.63,13,5,13,0.00
2012-2-13,44,33,24,21,18,15,69,55,36,30.07,29.98,8,2,8,0.00
2012-2-14,49,40,33,35,28,21,78,63,49,30.11,30.00,4,1,4,0.00
2012-2-15,45,42,36,41,37,30,88,81,74,30.28,30.04,4,1,4,0.00
2012-2-16,36,33,32,30,28,27,83,83,81,30.29,30.27,1,0,1,0.00
2012-2-17,54,46,34,44,33,24,93,62,43,30.03,29.93,7,3,7,0.00
2012-2-18,55,41,31,37,28,22,81,61,32,30.09,29.89,8,2,8,0.00
2012-2-19,48,39,30,33,28,25,81,66,51,30.08,29.92,8,2,8,0.00
2012-2-20,48,40,32,27,21,16,62,49,33,30.33,29.92,9,4,9,0.00
2012-2-21,50,39,26,39,28,16,79,65,51,30.35,29.87,11,2,11,0.00
2012-2-22,64,49,38,43,37,30,88,66,29,29.87,29.48,7,3,7,0.00
2012-2-23,65,54,47,46,38,28,86,59,30,29.75,29.40,13,3,13,0.00
2012-2-24,48,45,42,46,41,36,94,85,62,29.73,29.30,11,4,11,0.00
2012-2-25,46,41,37,39,25,19,82,54,39,29.94,29.46,15,6,15,0.00
2012-2-26,50,40,30,22,19,15,63,44,33,30.45,30.34,9,2,9,0.00
2012-2-27,62,45,30,38,32,21,87,62,32,30.44,30.11,7,3,7,0.00
2012-2-28,58,45,37,37,28,22,71,52,31,30.38,30.12,10,3,10,0.00
2012-2-29,47,43,35,44,38,29,92,84,71,30.36,29.72,4,1,4,0.00
2012-3-1,50,45,39,45,41,34,92,85,69,29.94,29.61,10,3,10,0.00
2012-3-2,46,42,38,43,37,34,92,82,71,30.11,29.77,5,2,5,0.00
2012-3-3,48,47,45,47,45,43,94,92,91,29.77,29.68,5,2,5,0.00
2012-3-4,42,38,35,23,22,21,60,53,43,29.77,29.65,5,2,5,0.00
2012-3-5,46,38,29,25,20,10,71,50,36,30.36,29.78,7,2,7,0.00
2012-3-6,49,36,26,25,17,8,71,48,25,30.64,30.37,5,3,5,0.00
2012-3-7,68,49,32,44,35,25,82,62,29,30.61,30.35,10,3,10,0.00
2012-3-8,72,60,50,52,49,44,81,69,47,30.35,29.90,10,5,10,0.00
2012-3-9,61,49,38,53,34,20,86,57,34,30.27,29.86,10,4,10,0.05
2012-3-10,45,37,30,21,16,9,60,43,29,30.55,30.27,9,3,9,0.00
2012-3-11,65,45,30,35,27,20,71,53,28,30.55,30.36,7,2,7,0.00
2012-3-12,75,54,37,45,38,31,77,56,25,30.39,30.14,7,2,7,0.00
2012-3-13,79,63,53,60,53,45,91,72,48,30.14,29.94,7,3,7,0.16
2012-3-14,76,63,51,54,42,30,88,52,22,30.18,30.00,9,2,9,0.05
2012-3-15,54,48,45,44,41,34,92,80,47,30.32,30.17,8,4,8,0.00
2012-3-16,51,47,45,48,45,43,94,91,86,30.27,30.12,8,2,8,0.05
2012-3-17,62,50,43,52,45,40,93,85,66,30.37,30.18,5,2,5,0.02
2012-3-18,63,52,45,52,46,43,91,82,65,30.38,30.22,4,2,4,0.00
2012-3-19,70,69,68,57,57,56,65,65,64,30.22,30.21,4,2,4,0.00
2012-3-20,56,56,56,54,53,52,90,88,86,30.30,30.27,1,1,1,0.00
2012-3-21,65,58,54,60,55,52,93,90,81,30.34,30.28,2,1,2,0.00
2012-3-22,73,63,56,63,58,54,94,84,68,30.30,30.09,4,1,4,0.00
2012-3-23,74,61,54,60,54,48,93,78,60,30.10,30.03,8,2,8,0.00
2012-3-24,59,54,51,50,46,43,89,77,57,30.06,29.94,10,3,10,0.11
2012-3-25,52,49,46,47,45,43,91,88,82,29.95,29.73,9,4,9,0.20
2012-3-26,58,48,36,46,30,10,94,56,23,30.12,29.70,13,5,13,0.03
2012-3-27,56,42,30,25,11,5,56,30,17,30.28,30.12,10,4,10,0.00
2012-3-28,71,56,38,50,39,25,68,55,38,30.20,29.56,6,2,6,0.00
2012-3-29,62,56,44,52,39,29,71,54,41,30.02,29.56,12,5,12,0.00
2012-3-30,62,47,36,38,31,25,72,55,32,30.09,29.93,6,2,6,0.00
2012-3-31,47,44,42,43,40,36,91,86,67,29.97,29.82,11,4,11,0.34
2012-4-1,54,47,42,44,41,38,91,82,66,29.91,29.62,7,2,7,0.10
2012-4-2,60,50,42,44,33,19,92,58,27,29.87,29.55,11,4,11,0.19
2012-4-3,68,52,36,30,23,19,56,34,18,29.95,29.78,10,3,10,0.00
2012-4-4,74,60,49,40,33,28,60,39,21,29.78,29.51,7,2,7,0.00
2012-4-5,60,50,40,37,30,24,63,47,34,29.91,29.70,8,3,8,0.00
2012-4-6,64,50,37,32,26,18,61,40,23,30.02,29.89,7,3,7,0.00
2012-4-7,64,51,37,22,19,16,48,30,17,30.09,29.96,10,4,10,0.00
2012-4-8,71,56,39,35,24,18,45,30,16,30.04,29.68,10,3,10,0.00
2012-4-9,67,57,47,34,28,25,52,33,23,29.79,29.68,8,4,8,0.00
2012-4-10,64,54,44,37,29,26,65,40,25,29.81,29.69,9,3,9,0.00
2012-4-11,59,48,39,34,31,28,75,53,32,29.91,29.78,8,3,8,0.00
2012-4-12,51,46,43,34,33,31,70,61,47,30.12,29.91,3,2,3,0.00
2012-4-13,67,53,40,38,33,28,63,47,33,30.22,30.12,7,2,7,0.00
2012-4-14,78,59,40,44,35,29,71,45,20,30.23,30.05,8,2,8,0.00
2012-4-15,85,70,58,58,51,43,68,53,38,30.06,29.98,7,2,7,0.00
2012-4-16,92,73,59,64,57,51,79,59,36,30.06,29.93,5,2,5,0.00
2012-4-18,60,56,53,41,38,34,62,51,39,30.18,30.14,3,1,3,0.00
2012-4-19,72,59,52,51,46,41,76,62,44,30.14,30.03,5,1,5,0.00
2012-4-20,65,57,47,54,49,42,85,73,60,30.06,29.87,3,1,3,0.00
2012-4-21,80,66,55,61,57,51,88,75,52,29.87,29.68,8,2,8,0.00
2012-4-22,63,54,50,58,50,47,94,87,80,29.78,29.23,11,3,11,0.00
2012-4-23,58,52,42,56,46,36,93,83,70,29.45,29.11,5,2,5,0.00
2012-4-24,63,50,38,44,35,29,86,61,30,29.71,29.45,8,2,8,0.00
2012-4-25,66,53,38,44,36,32,79,56,30,29.90,29.71,7,2,7,0.00
2012-4-26,60,52,42,54,46,34,89,80,62,29.92,29.60,4,1,4,0.00
2012-4-27,59,53,45,55,36,27,91,54,33,30.15,29.60,12,4,12,0.00
2012-4-28,62,49,36,36,28,22,77,48,27,30.26,30.13,4,2,4,0.00
2012-4-29,69,56,43,46,20,-3,99,36,1,30.24,30.08,8,2,8,0.00
2012-4-30,124,63,50,52,5,-4,1,1,1,30.30,30.24,1,0,1,0.00
2012-5-1,70,60,0,60,53,0,80,73,68,30.06,29.98,2,1,2,0.00
2012-5-2,60,53,51,54,49,48,91,87,80,30.17,30.06,6,2,6,0.00
2012-5-3,56,56,55,53,53,53,92,91,89,30.10,30.07,2,0,2,0.00
2012-5-4,86,66,55,68,60,53,95,82,54,30.09,29.84,3,1,3,0.00
2012-5-5,68,58,55,62,56,53,92,91,82,30.03,29.85,4,2,4,0.00
2012-5-6,65,56,52,54,51,48,91,84,68,30.12,30.02,5,2,5,0.00
2012-5-7,69,56,48,55,49,45,92,76,53,30.15,30.09,5,1,5,0.00
2012-5-8,72,63,56,58,54,48,84,73,57,30.10,29.84,9,3,9,0.00
2012-5-9,66,64,62,65,62,58,94,92,83,29.83,29.58,7,1,7,0.00
2012-5-10,69,61,54,60,48,39,93,67,35,29.86,29.52,7,2,7,0.00
2012-5-11,54,51,50,40,40,39,70,66,61,29.90,29.86,1,0,1,0.00
2012-5-12,84,73,53,48,46,43,68,40,28,30.25,30.14,5,1,5,0.00
2012-5-13,84,69,57,59,53,46,73,57,39,30.21,30.09,6,1,6,0.00
2012-5-14,76,68,63,62,58,54,83,72,59,30.17,30.09,3,1,3,0.00
2012-5-15,71,65,63,67,61,58,93,88,82,30.12,29.93,5,1,5,0.00
2012-5-16,76,67,64,67,63,61,93,86,73,29.95,29.84,2,0,2,0.00
2012-5-17,73,65,58,62,51,42,88,62,41,30.13,29.89,4,1,4,0.00
2012-5-18,60,54,52,50,46,45,81,74,64,30.18,30.12,1,0,1,0.00
2012-5-19,61,61,61,46,46,46,58,58,57,30.16,30.16,1,0,1,0.00
2012-5-20,71,63,56,59,52,44,89,70,49,30.23,30.12,7,2,7,0.00
2012-5-21,63,61,59,61,59,56,93,93,90,30.19,29.96,5,2,5,0.00
2012-5-22,70,64,61,66,62,60,94,91,86,29.96,29.81,3,1,3,0.00
2012-5-23,78,70,62,69,64,60,93,84,71,30.02,29.86,3,0,3,0.00
2012-5-24,76,69,66,69,65,63,91,87,78,30.17,30.02,3,1,3,0.00
2012-5-25,84,71,66,74,67,63,94,87,72,30.17,30.12,3,1,3,0.00
2012-5-28,91,85,77,73,71,70,79,64,54,29.97,29.90,5,1,5,0.00
2012-5-29,94,81,72,75,71,65,89,71,49,29.92,29.72,5,1,5,0.00
2012-5-30,75,73,69,70,67,64,88,82,72,29.78,29.71,1,0,1,0.00
2012-5-31,87,74,65,66,61,55,92,67,34,29.92,29.70,4,1,4,0.00
2012-6-1,73,68,65,66,60,55,91,76,67,29.99,29.76,5,2,5,0.00
2012-6-2,78,69,62,67,58,50,93,70,45,29.78,29.65,4,1,4,0.00
2012-6-3,79,64,56,57,52,48,79,66,43,29.78,29.65,4,1,4,0.00
2012-6-4,60,58,58,54,53,53,86,83,79,29.70,29.62,1,0,1,0.00
2012-6-5,64,61,58,53,52,51,78,73,67,29.95,29.91,1,0,1,0.00
2012-6-6,68,60,52,58,52,47,84,75,59,30.00,29.94,3,0,3,0.00
2012-6-7,74,61,57,62,55,52,87,81,65,29.99,29.94,2,0,2,0.00
2012-6-8,90,76,58,62,58,55,90,57,33,29.96,29.84,4,1,4,0.00
2012-6-9,87,73,62,63,57,54,77,59,35,29.98,29.88,4,1,4,0.00
2012-6-10,83,74,66,70,65,60,88,75,61,30.16,29.98,2,1,2,0.00
2012-6-11,74,70,68,66,64,62,87,81,70,30.23,30.13,3,1,3,0.00
2012-6-12,72,70,67,68,66,64,94,88,81,30.09,29.88,3,1,3,0.00
2012-6-13,70,67,0,66,65,62,94,92,88,30.04,29.81,7,2,7,0.00
2012-6-14,70,66,63,64,62,59,93,86,80,30.24,30.04,6,2,6,0.00
2012-6-15,81,68,58,59,56,52,92,68,41,30.29,30.22,6,1,6,0.00
2012-6-16,79,68,59,60,56,54,83,67,50,30.32,30.23,5,1,5,0.00
2012-6-17,74,66,62,59,56,53,77,71,57,30.24,30.11,4,1,4,0.00
2012-6-18,72,65,60,60,56,53,80,74,65,30.14,30.09,2,1,2,0.00
2012-6-19,80,70,64,70,63,57,86,79,71,30.17,30.08,3,0,3,0.00
2012-6-20,100,82,67,76,70,62,90,71,46,30.10,29.94,3,1,3,0.00
2012-6-21,102,87,76,74,70,68,81,60,35,29.95,29.78,3,1,3,0.00
2012-6-22,90,77,70,76,70,0,91,79,61,29.86,29.74,4,1,4,0.00
2012-6-23,92,76,67,69,64,58,93,69,35,29.98,29.80,6,1,6,0.00
2012-6-24,82,71,64,67,61,0,81,70,55,30.02,29.90,3,0,3,0.00
2012-6-25,83,72,67,70,65,61,90,81,59,29.91,29.64,5,1,5,0.00
2012-6-26,76,67,58,61,53,49,82,62,45,29.80,29.71,9,2,9,0.00
2012-6-27,86,71,56,57,53,48,76,54,33,29.85,29.75,8,1,8,0.00
2012-6-28,94,78,64,64,59,53,72,54,34,29.86,29.73,5,1,5,0.00
2012-6-29,101,83,70,76,70,62,89,66,43,29.76,29.58,5,1,5,0.00
2012-6-30,98,84,0,74,68,61,84,62,30,29.79,29.64,9,1,9,0.00
2012-7-1,99,84,71,74,69,65,82,63,41,29.86,29.74,5,1,5,0.00
2012-7-2,95,82,72,68,62,0,71,54,32,29.93,29.85,6,1,6,0.00
2012-7-3,90,79,68,70,64,57,74,61,46,29.97,29.84,3,0,3,0.00
2012-7-4,99,83,73,75,71,68,86,69,43,29.89,29.72,6,1,6,0.00
2012-7-5,97,84,74,76,70,63,89,66,40,29.83,29.72,5,1,5,0.00
2012-7-6,92,82,73,73,69,66,80,67,51,29.94,29.83,4,1,4,0.00
2012-7-7,100,84,75,77,72,69,85,69,41,29.90,29.77,8,1,8,0.00
2012-7-8,88,80,74,74,71,0,90,77,60,29.87,29.81,4,1,4,0.00
2012-7-9,87,78,73,71,65,62,85,64,48,29.97,29.84,7,1,7,0.00
2012-7-10,86,78,69,70,67,62,80,69,53,30.08,29.98,5,0,5,0.00
2012-7-11,86,77,69,70,67,64,87,71,55,30.19,30.07,4,1,4,0.00
2012-7-12,87,77,68,70,65,62,82,68,52,30.21,30.15,4,1,4,0.00
2012-7-13,87,77,67,71,66,0,82,69,57,30.22,30.14,3,0,3,0.00
2012-7-14,79,76,73,70,67,64,79,74,70,30.23,30.15,4,1,4,0.00
2012-7-15,85,76,73,76,71,67,91,85,76,30.18,29.94,10,0,10,0.00
2012-7-16,95,81,71,76,71,0,92,75,47,29.97,29.79,6,1,6,0.00
2012-7-17,100,85,72,77,70,65,84,64,36,29.87,29.76,4,1,4,0.00
2012-7-18,97,83,78,77,72,70,82,70,50,29.88,29.79,4,1,4,0.00
2012-7-20,73,68,65,69,64,60,93,88,82,30.04,29.89,10,4,10,0.00
2012-7-21,83,71,66,65,61,58,82,72,53,30.13,30.00,7,2,7,0.00
2012-7-22,84,73,64,68,63,59,87,72,55,30.18,30.12,4,1,4,0.00
2012-7-23,90,79,68,78,70,63,89,77,62,30.14,29.83,5,1,5,0.00
2012-7-24,100,85,74,75,69,63,88,63,35,29.83,29.58,8,2,8,0.00
2012-7-25,89,76,69,65,60,53,67,57,44,29.88,29.71,4,1,4,0.00
2012-7-26,98,80,68,77,69,59,85,71,52,29.84,29.63,14,1,14,0.00
2012-7-28,86,77,71,78,72,67,90,85,68,29.98,29.86,4,1,4,0.00
2012-7-29,83,74,69,73,69,66,92,85,70,30.05,29.88,6,1,6,0.00
2012-7-30,83,75,69,71,68,66,91,80,65,30.12,30.04,5,1,5,0.00
2012-7-31,86,76,71,71,68,66,85,77,60,30.08,29.92,6,1,6,0.00
2012-8-1,82,74,70,75,69,66,91,85,70,29.94,29.84,4,0,4,0.00
2012-8-2,90,78,69,78,71,66,94,81,61,29.93,29.85,4,1,4,0.00
2012-8-3,92,81,74,80,74,71,91,80,63,30.10,29.93,4,1,4,0.00
2012-8-4,92,81,74,79,75,0,91,81,63,30.20,30.10,4,1,4,0.00
2012-8-5,95,83,74,78,75,70,91,78,52,30.20,29.99,7,2,7,0.00
2012-8-6,89,79,73,76,72,67,93,81,53,30.03,29.95,4,1,4,0.00
2012-8-7,84,76,69,72,67,62,83,73,65,30.02,29.97,4,0,4,0.00
2012-8-8,83,77,74,77,73,70,91,87,79,29.99,29.93,3,0,3,0.00
2012-8-9,89,79,72,77,73,69,94,84,67,29.98,29.87,4,0,4,0.00
2012-8-10,81,77,72,77,74,69,93,90,86,29.90,29.75,4,0,4,0.00
2012-8-11,86,76,73,78,73,70,94,89,74,29.94,29.80,3,0,3,0.00
2012-8-12,90,78,71,73,69,64,92,76,50,29.97,29.88,4,0,4,0.00
2012-8-13,88,76,66,67,64,61,84,68,47,30.03,29.94,5,0,5,0.00
2012-8-14,83,74,69,75,69,64,90,84,73,29.98,29.88,3,0,3,0.00
2012-8-15,88,77,72,78,72,67,93,85,66,29.89,29.81,5,0,5,0.00
2012-8-16,90,76,68,70,65,60,91,70,40,29.92,29.86,5,0,5,0.00
2012-8-17,91,78,67,72,66,0,86,69,49,29.91,29.78,4,0,4,0.00
2012-8-18,83,72,66,68,65,62,90,77,59,29.93,29.83,5,1,5,0.00
2012-8-19,78,70,62,64,61,57,84,73,59,29.99,29.92,4,0,4,0.00
2012-8-20,83,73,0,66,62,60,77,69,55,29.94,29.85,0,0,0,0.00
2012-8-21,85,74,67,68,64,0,84,70,51,30.10,29.93,0,0,0,0.00
2012-8-22,86,74,0,71,65,0,88,74,55,30.15,30.09,3,0,3,0.00
2012-8-23,87,75,65,71,66,61,88,74,54,30.17,30.10,1,0,1,0.00
2012-8-24,88,76,67,72,67,63,88,76,57,30.18,30.12,3,0,3,0.00
2012-8-25,79,73,71,71,67,65,85,80,74,30.26,30.17,5,0,5,0.00
2012-8-26,84,76,72,70,68,65,81,74,63,30.31,30.22,7,1,7,0.00
2012-8-27,81,76,71,77,72,67,92,87,81,30.22,29.97,0,0,0,0.00
2012-8-28,92,79,73,75,72,66,93,81,45,29.97,29.81,5,1,5,0.00
2012-8-29,85,76,67,65,62,59,78,63,49,30.02,29.93,6,1,6,0.00
2012-8-30,89,74,63,65,60,57,84,65,40,30.12,30.02,1,0,1,0.00
2012-8-31,88,71,67,65,64,61,89,80,42,30.09,29.93,0,0,0,0.00
2012-9-1,95,83,74,71,66,58,81,60,34,30.04,29.94,0,0,0,0.00
2012-9-2,80,76,74,72,70,69,87,82,76,30.09,30.01,0,0,0,0.00
2012-9-3,77,75,71,72,70,68,92,86,81,30.14,30.05,4,0,4,0.00
2012-9-4,79,74,70,76,72,68,94,93,90,30.09,29.87,0,0,0,0.00
2012-9-5,87,76,72,78,73,69,94,90,74,29.87,29.77,6,0,6,0.00
2012-9-6,77,72,66,73,69,64,93,90,87,29.92,29.84,0,0,0,0.00
2012-9-7,90,76,68,78,70,0,94,82,65,29.94,29.84,1,0,1,0.00
2012-9-8,86,76,66,77,71,63,92,85,70,29.88,29.60,7,2,7,0.00
2012-9-9,74,67,64,65,62,58,90,86,74,29.89,29.78,3,0,3,0.00
2012-9-10,77,66,58,58,53,46,85,64,42,30.15,29.88,6,2,6,0.00
2012-9-11,79,64,53,56,50,45,76,62,39,30.30,30.14,4,1,4,0.00
2012-9-12,66,60,56,57,54,50,84,79,73,30.37,30.29,1,0,1,0.00
2012-9-13,82,73,59,65,61,54,85,69,56,30.39,30.30,3,1,3,0.00
2012-9-14,83,75,67,68,64,60,81,68,56,30.23,30.10,4,1,4,0.00
2012-9-15,79,68,60,61,55,49,86,65,41,30.15,30.06,7,2,7,0.00
2012-9-16,80,65,54,58,52,48,79,64,41,30.15,29.84,4,0,4,0.00
2012-9-17,82,66,53,61,53,46,82,66,46,29.93,29.84,3,0,3,0.00
2012-9-18,77,72,68,72,68,61,91,85,79,29.84,29.47,11,2,11,1.18
2012-9-19,76,66,60,66,54,47,92,67,41,29.97,29.54,6,1,6,1.03
2012-9-20,74,65,58,62,56,47,81,72,63,29.98,29.89,3,0,3,0.00
2012-9-21,79,67,60,63,59,56,87,74,52,29.91,29.80,5,1,5,0.00
2012-9-22,63,62,60,57,56,54,83,82,81,29.81,29.77,0,0,0,0.00
2012-9-30,70,63,58,54,52,50,74,68,56,29.66,29.57,3,0,3,0.00
2012-10-1,77,62,0,54,50,46,86,68,40,29.77,29.65,5,1,5,0.00
2012-10-2,72,67,62,69,62,53,91,83,72,29.80,29.72,3,0,3,0.00
2012-10-3,76,71,68,72,68,66,92,91,88,29.92,29.75,3,0,3,0.00
2012-10-4,76,71,67,72,68,64,92,90,86,29.93,29.83,2,0,2,0.00
2012-10-5,84,69,60,66,62,58,92,79,50,29.88,29.75,6,1,6,0.00
2012-10-6,82,67,56,66,59,49,90,76,54,29.81,29.56,6,1,6,0.00
2012-10-7,56,51,49,49,46,43,88,82,72,29.92,29.80,4,0,4,0.00
2012-10-8,54,50,44,47,45,41,91,84,78,30.08,29.91,3,1,3,0.00
2012-10-9,60,56,52,57,54,47,92,90,82,29.99,29.83,6,2,6,0.00
2012-10-10,69,62,56,62,55,44,93,80,61,29.83,29.62,6,1,6,0.00
2012-10-11,66,53,46,45,40,35,77,61,39,30.02,29.79,6,1,6,0.00
2012-10-12,62,50,43,45,39,31,88,66,47,30.22,29.89,7,1,7,0.00
2012-10-13,61,47,36,41,35,28,79,63,46,30.31,30.11,4,1,4,0.00
2012-10-14,77,60,47,58,51,41,87,73,44,30.12,29.77,8,2,8,0.00
2012-10-15,76,67,61,64,60,57,87,79,62,29.77,29.43,8,2,8,0.00
2012-10-16,64,56,47,57,44,40,88,67,44,29.72,29.47,7,2,7,0.00
2012-10-17,63,52,41,49,43,36,83,72,54,29.82,29.71,3,0,3,0.00
2012-10-18,69,57,45,60,51,41,89,81,68,29.83,29.70,4,1,4,0.00
2012-10-19,70,66,63,67,62,59,91,89,84,29.71,29.45,6,1,6,0.00
2012-10-20,74,63,53,62,54,44,92,75,42,29.65,29.46,5,1,5,0.00
2012-10-21,68,56,47,48,44,41,81,66,43,29.85,29.65,5,1,5,0.00
2012-10-22,71,56,47,49,44,41,79,64,41,29.93,29.83,7,1,7,0.00
2012-10-23,66,57,48,58,50,42,86,78,71,29.92,29.85,2,0,2,0.00
2012-10-24,63,60,58,58,56,54,90,86,83,29.97,29.87,5,1,5,0.00
2012-10-25,62,61,60,58,56,56,87,85,83,30.05,29.97,3,0,3,0.00
2012-10-26,68,63,58,61,58,54,90,85,78,30.02,29.89,3,1,3,0.00
2012-10-27,65,62,60,57,54,50,86,77,71,29.89,29.65,10,2,10,0.00
2012-10-28,60,58,56,54,52,49,91,81,67,29.66,29.37,16,6,16,0.00
2012-10-29,57,54,52,52,50,49,92,88,80,29.37,28.97,15,6,15,0.00
2012-11-10,46,45,44,40,39,38,83,81,78,30.21,30.19,1,0,1,0.00
2012-11-11,68,53,42,54,46,37,91,78,54,30.28,30.19,6,1,6,0.00
2012-11-12,63,53,46,59,50,43,91,89,87,30.26,29.98,8,1,8,0.00
2012-11-13,62,49,38,59,44,31,91,83,67,30.22,29.91,11,4,11,0.00
2012-11-14,50,40,32,36,32,27,83,71,56,30.29,30.21,9,2,9,0.00
2012-11-15,45,41,37,36,33,30,79,73,66,30.23,30.05,8,2,8,0.00
2012-11-16,49,41,35,35,31,27,77,69,55,30.20,30.04,7,2,7,0.00
2012-11-17,52,42,35,40,33,27,82,72,62,30.39,30.20,12,2,12,0.00
2012-11-18,52,46,38,44,39,33,84,77,70,30.42,30.30,12,4,12,0.00
2012-11-19,51,48,45,44,42,40,85,80,73,30.30,30.01,12,4,12,0.00
2012-11-20,52,46,39,42,39,35,86,76,67,30.02,29.89,8,2,8,0.00
2012-11-21,53,45,39,42,37,32,85,74,59,30.00,29.90,9,2,9,0.00
2012-11-22,56,45,38,47,39,33,87,80,68,30.05,29.92,7,1,7,0.00
2012-11-23,58,44,34,49,40,31,91,83,70,29.92,29.49,6,1,6,0.00
2012-11-24,47,41,36,44,27,23,89,58,43,29.69,29.47,15,4,15,0.00
2012-11-25,44,36,29,27,23,21,71,61,47,29.78,29.68,10,2,10,0.00
2012-11-26,50,38,28,30,25,21,77,62,41,30.04,29.77,10,1,10,0.00
2012-11-27,42,38,32,39,34,24,90,83,71,30.06,29.94,6,2,6,0.00
2012-11-28,43,36,29,36,29,22,89,75,52,30.10,29.95,10,3,10,0.00
2012-11-29,47,35,27,29,25,22,83,67,45,30.18,30.08,7,1,7,0.00
2012-11-30,48,38,28,39,31,23,85,76,62,30.18,30.12,5,1,5,0.00
2012-12-1,53,46,40,47,42,35,90,86,79,30.26,30.17,8,3,8,0.00
2012-12-2,56,48,41,48,44,39,92,85,71,30.20,29.92,6,2,6,0.00
2012-12-3,67,55,47,55,48,42,90,79,59,30.05,29.90,5,1,5,0.00
2012-12-4,66,55,46,55,49,42,91,83,68,30.06,29.81,6,2,6,0.00
2012-12-5,56,52,37,51,40,22,85,65,47,30.03,29.71,14,4,14,0.00
2012-12-6,44,35,29,27,23,20,75,61,47,30.16,30.03,7,2,7,0.00
2012-12-7,47,39,30,44,34,23,89,83,75,30.08,29.80,2,0,2,0.00
2012-12-8,55,51,47,52,48,44,92,90,86,29.80,29.67,5,1,5,0.00
2012-12-9,52,49,46,50,46,42,92,90,85,30.01,29.78,8,3,8,0.00
2012-12-10,63,58,52,60,56,50,92,92,90,29.78,29.37,6,2,6,0.00
2012-12-11,60,49,44,58,44,38,92,81,65,29.84,29.37,6,3,6,0.00
2012-12-12,46,42,38,32,29,28,72,60,50,30.22,30.15,5,2,5,0.00
2012-12-13,45,36,31,33,28,25,78,72,57,30.25,30.12,10,1,10,0.00
2012-12-14,52,38,27,33,27,23,85,68,44,30.12,29.96,6,1,6,0.00
2012-12-15,50,40,31,39,32,25,81,74,66,30.11,29.99,3,1,3,0.00
2012-12-16,53,50,45,48,45,39,90,86,79,30.00,29.69,3,1,3,0.00
2012-12-17,51,47,45,48,45,42,92,91,90,29.69,29.42,6,3,6,0.00
2012-12-18,59,52,42,52,47,34,92,82,66,29.45,29.27,8,3,8,0.00
2012-12-19,49,44,38,34,31,28,75,59,48,29.92,29.60,19,5,19,0.00
2012-12-20,50,40,31,45,33,25,83,75,67,30.01,29.52,6,2,6,0.00
2012-12-21,56,46,36,54,38,28,91,76,63,29.52,28.94,13,4,13,0.00
2012-12-22,42,38,34,30,25,22,77,61,48,29.68,29.18,18,5,18,0.00
2012-12-23,44,36,30,27,24,22,72,62,42,29.79,29.67,8,2,8,0.00
2012-12-24,30,30,30,23,23,22,75,75,73,29.77,29.76,1,1,1,0.00
2012-12-25,44,34,30,34,26,23,75,73,69,30.04,29.76,10,2,10,0.00
2012-12-26,53,39,31,50,35,25,92,84,73,30.06,29.10,20,6,20,0.00
2012-12-27,54,40,31,51,34,22,92,80,65,29.65,28.99,19,6,19,0.00
2012-12-28,40,33,29,27,24,22,79,70,61,29.87,29.65,12,2,12,0.00
2012-12-29,43,35,29,37,30,23,92,85,74,29.82,29.27,10,2,10,0.00
2012-12-30,38,34,30,29,21,0,86,61,47,30.02,29.41,19,8,19,0.00
2012-12-31,40,34,28,29,23,15,76,65,53,30.03,29.70,7,2,7,0.00
2013-1-1,42,39,32,32,28,18,72,65,56,29.80,29.63,9,2,9,0.00